Time;durP1;ratioP1;P1;durP2;ratioP2;P2;SDS_P1;SDS_P2;PMS_P1;PMS_P2;Temp;Humidity;BMP_temperature;BMP_pressure;BME280_temperature;BME280_humidity;BME280_pressure;Samples;Min_cycle;Max_cycle;Signal;HPM_P1;HPM_P2
2022/01/16 00:00:24;;;;;;;45.90;34.13;;;3.30;99.90;;;;;;5138927;27;20185;-85
2022/01/16 00:05:31;;;;;;;47.07;34.83;;;3.30;99.90;;;;;;5167749;27;20197;-81
2022/01/16 00:08:03;;;;;;;47.57;36.63;;;3.30;99.90;;;;;;5154034;27;20165;-86
2022/01/16 00:10:29;;;;;;;50.00;36.40;;;3.30;99.90;;;;;;5173683;27;20142;-82
2022/01/16 00:12:59;;;;;;;49.03;35.87;;;3.30;99.90;;;;;;5169700;27;20165;-82
2022/01/16 00:15:25;;;;;;;52.17;38.00;;;3.50;99.90;;;;;;5153558;27;20201;-81
2022/01/16 00:18:09;;;;;;;50.67;37.13;;;3.60;99.90;;;;;;5152890;27;20138;-88
2022/01/16 00:20:35;;;;;;;55.73;37.47;;;3.50;99.90;;;;;;5149745;27;20177;-90
2022/01/16 00:23:07;;;;;;;50.17;36.43;;;3.60;99.90;;;;;;5145079;27;20518;-81
2022/01/16 00:25:33;;;;;;;51.40;36.47;;;3.70;99.90;;;;;;5143608;27;20564;-80
2022/01/16 00:28:02;;;;;;;52.80;37.23;;;3.60;99.90;;;;;;5167843;27;20161;-90
2022/01/16 00:30:27;;;;;;;51.83;37.43;;;3.60;99.90;;;;;;5162668;27;20161;-85
2022/01/16 00:32:59;;;;;;;55.10;37.27;;;3.70;99.90;;;;;;5141763;27;20722;-87
2022/01/16 00:35:25;;;;;;;52.17;37.10;;;3.70;99.90;;;;;;5159048;27;20290;-84
2022/01/16 00:37:52;;;;;;;53.87;37.13;;;3.60;99.90;;;;;;5160913;27;20198;-82
2022/01/16 00:40:18;;;;;;;53.63;35.90;;;3.60;99.90;;;;;;5146620;27;20530;-92
2022/01/16 00:42:44;;;;;;;53.40;36.53;;;3.60;99.90;;;;;;5163007;27;20163;-86
2022/01/16 00:45:11;;;;;;;52.80;36.80;;;3.60;99.90;;;;;;5167268;27;20193;-90
2022/01/16 00:47:40;;;;;;;51.73;36.13;;;3.60;99.90;;;;;;5151222;27;20198;-87
2022/01/16 00:50:13;;;;;;;49.80;34.93;;;3.60;99.90;;;;;;5169721;27;20169;-80
2022/01/16 00:52:39;;;;;;;49.93;35.20;;;3.60;99.90;;;;;;5175125;27;20161;-82
2022/01/16 00:55:10;;;;;;;49.53;34.30;;;3.70;99.90;;;;;;5173998;27;20193;-89
2022/01/16 00:57:36;;;;;;;48.90;34.43;;;3.70;99.90;;;;;;5154191;27;20186;-80
2022/01/16 01:00:47;;;;;;;46.57;34.30;;;3.70;99.90;;;;;;5171844;27;20629;-81
2022/01/16 01:03:45;;;;;;;47.93;34.20;;;3.80;99.90;;;;;;5167908;27;20157;-80
2022/01/16 01:06:10;;;;;;;50.37;35.33;;;3.70;99.90;;;;;;5155548;27;20643;-80
2022/01/16 01:08:36;;;;;;;47.67;33.93;;;3.60;99.90;;;;;;5175651;27;20232;-87
2022/01/16 01:11:07;;;;;;;47.17;36.07;;;3.60;99.90;;;;;;5175536;27;20161;-83
2022/01/16 01:13:54;;;;;;;48.47;34.23;;;3.70;99.90;;;;;;5176537;27;20177;-79
2022/01/16 01:16:19;;;;;;;50.53;35.20;;;3.70;99.90;;;;;;5179273;27;20187;-80
2022/01/16 01:18:44;;;;;;;50.53;35.37;;;3.70;99.90;;;;;;5183694;27;20173;-80
2022/01/16 01:21:26;;;;;;;48.20;34.67;;;3.80;99.90;;;;;;5178204;27;20183;-81
2022/01/16 01:24:29;;;;;;;48.50;33.63;;;3.80;99.90;;;;;;5166017;27;20298;-81
2022/01/16 01:29:31;;;;;;;48.37;34.03;;;4.00;99.90;;;;;;5181025;27;20157;-80
2022/01/16 01:31:57;;;;;;;50.93;34.77;;;3.90;99.90;;;;;;5182169;27;20237;-79
2022/01/16 01:34:24;;;;;;;51.90;35.40;;;4.10;99.90;;;;;;5180762;27;20154;-78
2022/01/16 01:36:51;;;;;;;49.27;35.13;;;4.10;99.90;;;;;;5143174;27;20170;-79
2022/01/16 01:39:23;;;;;;;52.93;36.20;;;4.40;99.90;;;;;;5181165;27;20162;-79
2022/01/16 01:42:03;;;;;;;53.87;36.63;;;4.40;99.90;;;;;;5159263;27;20188;-89
2022/01/16 01:52:42;;;;;;;57.90;37.47;;;4.60;99.90;;;;;;5179095;27;20184;-81
2022/01/16 01:55:11;;;;;;;52.77;35.13;;;4.70;99.90;;;;;;5170545;27;20189;-90
2022/01/16 01:57:40;;;;;;;49.43;35.00;;;4.50;99.90;;;;;;5149631;27;20162;-84
2022/01/16 02:00:07;;;;;;;51.73;35.33;;;4.40;99.90;;;;;;5171683;27;20689;-89
2022/01/16 02:02:52;;;;;;;49.17;34.80;;;4.20;99.90;;;;;;5171443;27;20157;-87
2022/01/16 02:05:19;;;;;;;51.80;33.67;;;4.20;99.90;;;;;;5168396;27;20220;-90
2022/01/16 02:07:46;;;;;;;55.93;35.33;;;4.20;99.90;;;;;;5148637;27;20264;-89
2022/01/16 02:10:13;;;;;;;52.70;34.70;;;4.20;99.90;;;;;;5181936;27;20217;-80
2022/01/16 02:12:44;;;;;;;48.63;33.97;;;4.30;99.90;;;;;;5161296;27;20197;-80
2022/01/16 02:32:45;;;;;;;51.03;33.23;;;4.30;99.90;;;;;;5180232;27;20157;-86
2022/01/16 02:35:17;;;;;;;54.67;33.53;;;4.30;99.90;;;;;;5175622;27;20217;-80
2022/01/16 02:38:04;;;;;;;48.23;32.47;;;4.30;99.90;;;;;;5144946;27;20162;-86
2022/01/16 02:41:03;;;;;;;47.77;33.23;;;4.30;99.90;;;;;;5144551;27;20248;-80
2022/01/16 02:43:35;;;;;;;50.67;33.17;;;4.20;99.90;;;;;;5160861;27;20240;-91
2022/01/16 02:48:44;;;;;;;54.57;35.10;;;4.20;99.90;;;;;;5151765;27;20188;-80
2022/01/16 02:51:18;;;;;;;52.40;34.87;;;4.10;99.90;;;;;;5168590;27;20177;-85
2022/01/16 02:53:46;;;;;;;50.43;34.30;;;4.10;99.90;;;;;;5160720;27;20154;-81
2022/01/16 02:56:13;;;;;;;54.50;35.30;;;4.10;99.90;;;;;;5160409;27;20207;-81
2022/01/16 02:58:40;;;;;;;57.13;35.77;;;4.10;99.90;;;;;;5160749;27;20264;-90
2022/01/16 03:01:07;;;;;;;52.87;35.37;;;4.10;99.90;;;;;;5162240;27;20178;-90
2022/01/16 03:03:33;;;;;;;53.73;36.63;;;4.20;99.90;;;;;;5141869;27;20199;-80
2022/01/16 03:05:58;;;;;;;53.20;34.70;;;4.20;99.90;;;;;;5160896;27;20201;-81
2022/01/16 03:08:24;;;;;;;57.17;36.50;;;4.00;99.90;;;;;;5162399;27;20161;-81
2022/01/16 03:13:21;;;;;;;56.00;35.90;;;3.90;99.90;;;;;;5159256;27;20173;-90
2022/01/16 03:15:50;;;;;;;57.10;36.37;;;3.90;99.90;;;;;;5162173;27;20154;-81
2022/01/16 03:23:26;;;;;;;54.47;34.77;;;4.00;99.90;;;;;;5173382;27;20199;-81
2022/01/16 03:25:54;;;;;;;60.37;36.17;;;4.00;99.90;;;;;;5158540;27;20185;-85
2022/01/16 03:28:25;;;;;;;55.87;35.50;;;3.90;99.90;;;;;;5176594;27;20157;-80
2022/01/16 03:30:57;;;;;;;52.63;35.87;;;3.80;99.90;;;;;;5151233;27;20178;-90
2022/01/16 03:33:44;;;;;;;56.23;37.10;;;3.90;99.90;;;;;;5145477;27;20264;-80
2022/01/16 03:36:18;;;;;;;58.30;37.50;;;3.90;99.90;;;;;;5143826;27;20169;-90
2022/01/16 03:38:45;;;;;;;59.90;37.23;;;3.90;99.90;;;;;;5170951;27;20142;-84
2022/01/16 03:41:10;;;;;;;59.10;37.77;;;3.90;99.90;;;;;;5171233;27;20162;-84
2022/01/16 03:43:36;;;;;;;62.33;36.87;;;3.80;99.90;;;;;;5180502;27;20229;-82
2022/01/16 03:46:05;;;;;;;59.40;37.97;;;3.80;99.90;;;;;;5178229;27;20278;-83
2022/01/16 03:49:08;;;;;;;60.90;38.17;;;3.70;99.90;;;;;;5169964;27;20158;-81
2022/01/16 03:51:38;;;;;;;58.83;37.40;;;3.90;99.90;;;;;;5160636;27;20186;-89
2022/01/16 03:54:07;;;;;;;61.33;38.40;;;3.80;99.90;;;;;;5165466;27;20154;-79
2022/01/16 03:56:34;;;;;;;63.03;39.63;;;3.70;99.90;;;;;;5180156;27;20177;-80
2022/01/16 03:59:00;;;;;;;61.43;38.27;;;3.80;99.90;;;;;;5175252;27;20531;-80
2022/01/16 04:01:25;;;;;;;62.67;39.47;;;3.70;99.90;;;;;;5153246;27;20158;-82
2022/01/16 04:03:57;;;;;;;61.60;37.93;;;3.60;99.90;;;;;;5170195;27;20542;-92
2022/01/16 04:06:33;;;;;;;62.33;39.87;;;3.60;99.90;;;;;;5163061;27;20235;-86
2022/01/16 04:08:59;;;;;;;65.10;39.87;;;3.50;99.90;;;;;;5160179;27;20562;-81
2022/01/16 04:11:28;;;;;;;65.17;40.57;;;3.60;99.90;;;;;;5147845;27;20193;-81
2022/01/16 04:14:03;;;;;;;66.33;39.87;;;3.50;99.90;;;;;;5140814;27;20158;-91
2022/01/16 04:16:30;;;;;;;71.20;40.53;;;3.60;99.90;;;;;;5149216;27;20161;-80
2022/01/16 04:18:56;;;;;;;71.93;42.00;;;3.60;99.90;;;;;;5158894;27;20169;-89
2022/01/16 04:21:24;;;;;;;66.37;39.90;;;3.60;99.90;;;;;;5158768;27;20200;-81
2022/01/16 04:23:51;;;;;;;62.30;38.83;;;3.60;99.90;;;;;;5157717;27;20166;-83
2022/01/16 04:26:20;;;;;;;68.67;41.63;;;3.60;99.90;;;;;;5125958;27;20212;-82
2022/01/16 04:28:46;;;;;;;65.73;41.73;;;3.70;99.90;;;;;;5147565;27;20173;-81
2022/01/16 04:31:13;;;;;;;68.43;40.50;;;3.60;99.90;;;;;;5147037;27;20161;-84
2022/01/16 04:33:40;;;;;;;66.30;40.73;;;3.50;99.90;;;;;;5147400;27;20169;-89
2022/01/16 04:36:08;;;;;;;66.30;39.77;;;3.50;99.90;;;;;;5139063;27;20226;-89
2022/01/16 04:38:36;;;;;;;68.77;42.80;;;3.50;99.90;;;;;;5139859;27;20169;-84
2022/01/16 04:43:47;;;;;;;75.37;41.97;;;3.70;99.90;;;;;;5162440;27;20283;-80
2022/01/16 04:46:22;;;;;;;71.43;42.00;;;3.70;99.90;;;;;;5142196;27;20292;-84
2022/01/16 04:48:50;;;;;;;78.17;43.40;;;3.60;99.90;;;;;;5141331;27;20582;-82
2022/01/16 04:51:20;;;;;;;73.60;41.23;;;3.60;99.90;;;;;;5157976;27;20185;-90
2022/01/16 04:53:46;;;;;;;77.87;41.73;;;3.60;99.90;;;;;;5152833;27;20189;-83
2022/01/16 04:56:12;;;;;;;74.10;42.37;;;3.60;99.90;;;;;;5160129;27;20189;-79
2022/01/16 04:58:39;;;;;;;70.03;41.00;;;3.60;99.90;;;;;;5173179;27;20225;-80
2022/01/16 05:01:09;;;;;;;73.97;41.60;;;3.40;99.90;;;;;;5164307;27;20157;-82
2022/01/16 05:03:39;;;;;;;77.70;42.47;;;3.60;99.90;;;;;;5144919;27;20162;-85
2022/01/16 05:06:10;;;;;;;75.87;40.87;;;3.50;99.90;;;;;;5159366;27;20337;-83
2022/01/16 05:08:37;;;;;;;77.97;42.60;;;3.50;99.90;;;;;;5159636;27;20176;-91
2022/01/16 05:11:04;;;;;;;78.10;42.23;;;3.60;99.90;;;;;;5139896;27;20178;-82
2022/01/16 05:16:35;;;;;;;75.93;43.13;;;3.60;99.90;;;;;;5156245;27;20153;-83
2022/01/16 05:16:37;;;;;;;74.10;41.83;;;3.70;99.90;;;;;;5179205;27;20183;-80
2022/01/16 05:19:12;;;;;;;82.30;42.20;;;3.70;99.90;;;;;;5155313;27;20173;-80
2022/01/16 05:22:00;;;;;;;84.40;42.60;;;3.70;99.90;;;;;;5164492;27;20161;-80
2022/01/16 05:24:54;;;;;;;84.40;41.97;;;3.70;99.90;;;;;;5157968;27;20165;-90
2022/01/16 05:27:19;;;;;;;86.33;44.43;;;3.70;99.90;;;;;;5144303;27;20181;-90
2022/01/16 05:29:45;;;;;;;81.53;43.50;;;3.80;99.90;;;;;;5159483;27;20170;-91
2022/01/16 05:32:16;;;;;;;91.67;44.37;;;3.80;99.90;;;;;;5140376;27;20188;-89
2022/01/16 05:34:41;;;;;;;88.43;44.77;;;3.80;99.90;;;;;;5145640;27;20252;-85
2022/01/16 05:37:07;;;;;;;84.03;41.50;;;3.90;99.90;;;;;;5157535;27;20161;-79
2022/01/16 05:39:34;;;;;;;79.17;40.03;;;3.90;99.90;;;;;;5158370;27;20191;-79
2022/01/16 05:42:03;;;;;;;85.30;43.43;;;3.80;99.90;;;;;;5154212;27;20184;-79
2022/01/16 05:44:51;;;;;;;90.90;44.13;;;3.90;99.90;;;;;;5173748;27;20168;-80
2022/01/16 05:47:17;;;;;;;80.00;42.13;;;3.90;99.90;;;;;;5171548;27;20648;-79
2022/01/16 05:49:59;;;;;;;85.93;43.20;;;3.90;99.90;;;;;;5175088;27;20173;-80
2022/01/16 05:52:28;;;;;;;86.33;42.47;;;3.80;99.90;;;;;;5178529;27;20183;-82
2022/01/16 05:55:00;;;;;;;90.70;41.57;;;3.80;99.90;;;;;;5180874;27;20192;-80
2022/01/16 05:58:11;;;;;;;76.13;41.60;;;3.80;99.90;;;;;;5176508;27;20186;-87
2022/01/16 06:00:47;;;;;;;77.23;39.03;;;3.80;99.90;;;;;;5175013;27;20220;-80
2022/01/16 06:03:13;;;;;;;90.07;43.37;;;3.80;99.90;;;;;;5159306;27;20169;-79
2022/01/16 06:05:38;;;;;;;81.90;41.37;;;3.80;99.90;;;;;;5176423;27;20201;-92
2022/01/16 06:08:12;;;;;;;80.53;41.43;;;3.90;99.90;;;;;;5165616;27;20165;-88
2022/01/16 06:10:41;;;;;;;81.60;42.43;;;4.20;99.90;;;;;;5162704;27;20572;-91
2022/01/16 06:13:08;;;;;;;84.87;41.80;;;4.10;99.90;;;;;;5164367;27;20157;-87
2022/01/16 06:15:35;;;;;;;88.57;43.40;;;4.00;99.90;;;;;;5146849;27;20193;-90
2022/01/16 06:18:03;;;;;;;82.43;40.60;;;3.90;99.90;;;;;;5148294;27;20176;-80
2022/01/16 06:20:35;;;;;;;79.33;40.80;;;3.80;99.90;;;;;;5146568;27;20161;-91
2022/01/16 06:23:03;;;;;;;76.30;40.90;;;3.90;99.90;;;;;;5150224;27;20166;-80
2022/01/16 06:25:30;;;;;;;87.03;41.20;;;3.90;99.90;;;;;;5155319;27;20280;-86
2022/01/16 06:28:06;;;;;;;85.70;44.03;;;4.10;99.90;;;;;;5151208;27;20168;-91
2022/01/16 06:30:36;;;;;;;83.27;40.50;;;4.00;99.90;;;;;;5165129;27;20177;-87
2022/01/16 06:34:02;;;;;;;83.57;41.93;;;4.00;99.90;;;;;;5143776;27;20162;-84
2022/01/16 06:36:29;;;;;;;80.27;40.10;;;3.90;99.90;;;;;;5141460;27;20621;-88
2022/01/16 06:38:55;;;;;;;84.83;42.93;;;4.10;99.90;;;;;;5159636;27;20165;-91
2022/01/16 06:41:21;;;;;;;83.57;43.27;;;4.00;99.90;;;;;;5141317;27;20173;-87
2022/01/16 06:43:48;;;;;;;80.10;41.60;;;3.90;99.90;;;;;;5140574;27;20464;-91
2022/01/16 06:46:14;;;;;;;83.57;42.63;;;4.10;99.90;;;;;;5141410;27;20269;-80
2022/01/16 06:48:42;;;;;;;79.00;42.63;;;3.90;99.90;;;;;;5155506;27;20165;-80
2022/01/16 06:51:08;;;;;;;77.03;42.27;;;3.80;99.90;;;;;;5156907;27;20161;-86
2022/01/16 06:53:36;;;;;;;84.70;41.97;;;3.90;99.90;;;;;;5171108;27;20158;-86
2022/01/16 06:56:02;;;;;;;76.37;41.47;;;3.90;99.90;;;;;;5148276;27;20214;-80
2022/01/16 06:58:28;;;;;;;73.87;39.40;;;3.90;99.90;;;;;;5163665;27;20234;-84
2022/01/16 07:01:01;;;;;;;76.70;40.90;;;3.90;99.90;;;;;;5179548;27;20278;-83
2022/01/16 07:03:26;;;;;;;76.63;38.60;;;3.90;99.90;;;;;;5170899;27;20250;-82
2022/01/16 07:09:14;;;;;;;80.93;40.67;;;4.10;99.90;;;;;;5159664;27;20214;-81
2022/01/16 07:11:40;;;;;;;71.60;39.57;;;4.10;99.90;;;;;;5159323;27;20617;-91
2022/01/16 07:14:06;;;;;;;77.77;39.63;;;4.10;99.90;;;;;;5158949;27;20684;-82
2022/01/16 07:16:32;;;;;;;79.00;39.37;;;3.90;99.90;;;;;;5158649;27;20142;-92
2022/01/16 07:18:58;;;;;;;70.07;38.50;;;3.90;99.90;;;;;;5158595;27;20162;-87
2022/01/16 07:21:23;;;;;;;66.43;35.70;;;3.80;99.90;;;;;;5141713;27;20685;-83
2022/01/16 07:23:49;;;;;;;69.30;37.47;;;3.90;99.90;;;;;;5160622;27;20173;-85
2022/01/16 07:26:16;;;;;;;69.07;38.07;;;3.80;99.90;;;;;;5155858;27;20333;-78
2022/01/16 07:28:42;;;;;;;66.17;37.20;;;3.80;99.90;;;;;;5175069;27;20282;-78
2022/01/16 07:31:08;;;;;;;69.23;36.43;;;3.90;99.90;;;;;;5172040;27;20536;-89
2022/01/16 07:33:34;;;;;;;67.53;36.30;;;3.90;99.90;;;;;;5171918;27;20177;-81
2022/01/16 07:36:01;;;;;;;72.97;37.23;;;3.80;99.90;;;;;;5163350;27;20162;-80
2022/01/16 07:38:27;;;;;;;66.70;35.17;;;3.90;99.90;;;;;;5154396;27;20165;-79
2022/01/16 07:40:55;;;;;;;73.07;36.40;;;3.80;99.90;;;;;;5168468;27;20520;-78
2022/01/16 07:43:24;;;;;;;62.20;34.37;;;3.80;99.90;;;;;;5153782;27;20150;-78
2022/01/16 07:45:53;;;;;;;60.77;34.90;;;3.70;99.90;;;;;;5169111;27;20197;-88
2022/01/16 07:51:40;;;;;;;69.47;34.63;;;3.70;99.90;;;;;;5162928;27;20177;-83
2022/01/16 07:54:08;;;;;;;66.80;35.93;;;3.60;99.90;;;;;;5179802;27;20165;-81
2022/01/16 07:56:35;;;;;;;64.10;34.90;;;3.70;99.90;;;;;;5175506;27;20238;-81
2022/01/16 07:59:01;;;;;;;68.10;35.83;;;3.80;99.90;;;;;;5172090;27;20188;-80
2022/01/16 08:01:30;;;;;;;63.77;32.70;;;3.80;99.90;;;;;;5152955;27;20162;-90
2022/01/16 08:03:55;;;;;;;71.13;33.23;;;3.70;99.90;;;;;;5163324;27;20520;-83
2022/01/16 08:06:21;;;;;;;64.20;33.83;;;3.70;99.90;;;;;;5164144;27;20252;-78
2022/01/16 08:08:47;;;;;;;67.10;33.93;;;3.80;99.90;;;;;;5153490;27;20200;-80
2022/01/16 08:11:14;;;;;;;67.90;34.33;;;3.70;99.90;;;;;;5152355;27;20192;-80
2022/01/16 08:13:40;;;;;;;71.70;35.63;;;3.70;99.90;;;;;;5169648;27;20162;-82
2022/01/16 08:16:06;;;;;;;71.37;34.97;;;3.70;99.90;;;;;;5152753;27;20178;-85
2022/01/16 08:18:34;;;;;;;73.97;37.40;;;3.60;99.90;;;;;;5164607;27;20186;-83
2022/01/16 08:21:03;;;;;;;69.50;35.83;;;3.70;99.90;;;;;;5167324;27;20209;-79
2022/01/16 08:23:30;;;;;;;68.90;35.30;;;3.80;99.90;;;;;;5145183;27;20218;-81
2022/01/16 08:25:59;;;;;;;75.67;36.33;;;3.90;99.90;;;;;;5144289;27;20554;-81
2022/01/16 08:28:28;;;;;;;76.07;35.90;;;3.90;99.90;;;;;;5139327;27;20576;-86
2022/01/16 08:30:59;;;;;;;65.37;36.17;;;4.00;99.90;;;;;;5157042;27;20685;-80
2022/01/16 08:33:28;;;;;;;73.23;38.07;;;3.90;99.90;;;;;;5159902;27;20629;-79
2022/01/16 08:35:54;;;;;;;67.40;34.33;;;3.90;99.90;;;;;;5171007;27;20175;-85
2022/01/16 08:38:22;;;;;;;71.33;35.37;;;4.00;99.90;;;;;;5134925;27;20173;-84
2022/01/16 08:40:47;;;;;;;71.23;34.47;;;4.00;99.90;;;;;;5170679;27;20193;-81
2022/01/16 08:43:18;;;;;;;71.20;35.10;;;4.00;99.90;;;;;;5175474;27;20170;-89
2022/01/16 08:45:45;;;;;;;66.70;34.80;;;4.00;99.90;;;;;;5155674;27;20223;-83
2022/01/16 08:48:11;;;;;;;70.97;36.80;;;4.00;99.90;;;;;;5155673;27;20189;-88
2022/01/16 08:50:38;;;;;;;69.10;35.77;;;4.20;99.90;;;;;;5155235;27;20289;-84
2022/01/16 08:53:06;;;;;;;76.50;35.90;;;4.00;99.90;;;;;;5153668;27;20193;-80
2022/01/16 08:55:53;;;;;;;72.30;34.93;;;4.10;99.90;;;;;;5173769;27;20211;-82
2022/01/16 08:58:19;;;;;;;60.97;33.80;;;4.10;99.90;;;;;;5160581;27;20172;-89
2022/01/16 09:00:46;;;;;;;67.27;34.80;;;4.00;99.90;;;;;;5152843;27;20277;-88
2022/01/16 09:03:13;;;;;;;70.00;37.80;;;4.10;99.90;;;;;;5147010;27;20169;-88
2022/01/16 09:05:38;;;;;;;65.63;35.47;;;4.10;99.90;;;;;;5162163;27;20182;-82
2022/01/16 09:08:04;;;;;;;67.10;36.63;;;4.00;99.90;;;;;;5147308;27;20200;-87
2022/01/16 09:10:30;;;;;;;66.40;36.53;;;4.10;99.90;;;;;;5131639;28;20203;-85
2022/01/16 09:12:56;;;;;;;69.80;37.07;;;4.10;99.90;;;;;;5156650;27;20795;-86
2022/01/16 09:15:24;;;;;;;68.50;37.20;;;4.20;99.90;;;;;;5172380;27;20176;-86
2022/01/16 09:17:49;;;;;;;70.13;37.47;;;4.20;99.90;;;;;;5167825;27;20164;-87
2022/01/16 09:20:15;;;;;;;63.33;36.93;;;4.10;99.90;;;;;;5175018;27;20629;-86
2022/01/16 09:22:45;;;;;;;68.20;35.90;;;4.10;99.90;;;;;;5122573;27;20190;-84
2022/01/16 09:25:14;;;;;;;68.63;35.73;;;4.30;99.90;;;;;;5160824;27;20165;-86
2022/01/16 09:27:39;;;;;;;59.73;34.83;;;4.20;99.90;;;;;;5150302;27;20569;-81
2022/01/16 09:30:07;;;;;;;64.80;33.57;;;4.10;99.90;;;;;;5183860;27;20252;-83
2022/01/16 09:32:35;;;;;;;68.70;36.03;;;4.10;99.90;;;;;;5144055;27;20199;-86
2022/01/16 09:35:01;;;;;;;60.73;34.40;;;4.10;99.90;;;;;;5162421;27;20256;-88
2022/01/16 09:37:27;;;;;;;71.63;36.07;;;4.10;99.90;;;;;;5160516;27;20175;-86
2022/01/16 09:39:54;;;;;;;62.47;35.63;;;4.20;99.90;;;;;;5151835;27;20180;-83
2022/01/16 09:42:22;;;;;;;60.83;33.83;;;4.20;99.90;;;;;;5170228;27;20185;-91
2022/01/16 09:44:48;;;;;;;62.43;34.90;;;4.20;99.90;;;;;;5157360;27;20202;-84
2022/01/16 09:47:15;;;;;;;58.07;33.40;;;4.30;99.90;;;;;;5138764;27;20198;-89
2022/01/16 09:49:52;;;;;;;57.93;33.57;;;4.30;99.90;;;;;;5133152;27;20187;-85
2022/01/16 09:52:19;;;;;;;55.33;31.87;;;4.30;99.90;;;;;;5141145;27;20629;-81
2022/01/16 09:54:47;;;;;;;56.73;33.93;;;4.40;99.90;;;;;;5158078;27;20204;-86
2022/01/16 09:57:18;;;;;;;54.43;32.03;;;4.40;99.90;;;;;;5156204;27;20165;-82
2022/01/16 09:59:45;;;;;;;55.03;31.20;;;4.40;99.90;;;;;;5142842;27;20181;-84
2022/01/16 10:02:11;;;;;;;49.33;30.10;;;4.40;99.90;;;;;;5199378;27;20172;-83
2022/01/16 10:04:43;;;;;;;52.07;31.50;;;4.40;99.90;;;;;;5165235;27;20182;-83
2022/01/16 10:07:40;;;;;;;51.53;30.23;;;4.40;99.90;;;;;;5157126;27;20214;-88
2022/01/16 10:10:36;;;;;;;51.10;31.00;;;4.40;99.90;;;;;;5151028;27;20200;-88
2022/01/16 10:13:23;;;;;;;47.37;28.57;;;4.50;99.90;;;;;;5151080;27;20157;-87
2022/01/16 10:15:57;;;;;;;48.77;30.17;;;4.40;99.90;;;;;;5148954;27;20170;-87
2022/01/16 10:18:40;;;;;;;49.20;30.37;;;4.40;99.90;;;;;;5177296;27;20271;-83
2022/01/16 10:21:12;;;;;;;52.00;31.63;;;4.40;99.90;;;;;;5178196;27;20237;-82
2022/01/16 10:23:43;;;;;;;53.10;29.30;;;4.50;99.90;;;;;;5143076;27;20170;-84
2022/01/16 10:26:22;;;;;;;47.73;29.30;;;4.40;99.90;;;;;;5159775;27;20281;-83
2022/01/16 10:28:51;;;;;;;50.50;29.03;;;4.40;99.90;;;;;;5151240;27;20543;-85
2022/01/16 10:31:26;;;;;;;46.63;27.90;;;4.40;99.90;;;;;;5145907;27;20341;-82
2022/01/16 10:33:55;;;;;;;48.30;28.27;;;4.40;99.90;;;;;;5144948;27;20161;-85
2022/01/16 10:36:37;;;;;;;49.93;30.37;;;4.30;99.90;;;;;;5176778;27;20176;-83
2022/01/16 10:39:08;;;;;;;48.00;28.27;;;4.50;99.90;;;;;;5180841;27;20237;-84
2022/01/16 10:41:34;;;;;;;47.57;30.13;;;4.40;99.90;;;;;;5163890;27;20200;-81
2022/01/16 10:44:00;;;;;;;48.10;29.43;;;4.50;99.90;;;;;;5180824;27;20166;-83
2022/01/16 10:46:55;;;;;;;53.40;28.67;;;4.50;99.90;;;;;;5164443;27;20194;-80
2022/01/16 10:49:30;;;;;;;43.43;27.23;;;4.40;99.90;;;;;;5177295;27;20189;-87
2022/01/16 10:52:09;;;;;;;48.80;28.23;;;4.40;99.90;;;;;;5153506;27;20177;-85
2022/01/16 10:54:39;;;;;;;41.40;25.40;;;4.50;99.90;;;;;;5133205;27;20193;-89
2022/01/16 10:57:21;;;;;;;46.97;27.67;;;4.50;99.90;;;;;;5146686;27;20173;-87
2022/01/16 10:59:49;;;;;;;50.07;28.77;;;4.60;99.90;;;;;;5179970;27;20172;-81
2022/01/16 11:02:15;;;;;;;50.77;29.40;;;4.50;99.90;;;;;;5180972;27;20173;-81
2022/01/16 11:04:41;;;;;;;41.87;27.93;;;4.70;99.90;;;;;;5140776;27;20212;-83
2022/01/16 11:07:18;;;;;;;43.37;25.13;;;4.60;99.90;;;;;;5154329;27;20197;-81
2022/01/16 11:09:47;;;;;;;39.53;26.17;;;4.50;99.90;;;;;;5134992;27;20197;-84
2022/01/16 11:12:13;;;;;;;39.60;26.57;;;4.40;99.90;;;;;;5132214;27;20189;-87
2022/01/16 11:14:40;;;;;;;41.73;25.20;;;4.40;99.90;;;;;;5123713;27;20174;-82
2022/01/16 11:17:07;;;;;;;41.90;26.33;;;4.40;99.90;;;;;;5142270;27;20173;-92
2022/01/16 11:19:35;;;;;;;39.03;24.00;;;4.50;99.90;;;;;;5164391;27;20230;-86
2022/01/16 11:22:05;;;;;;;38.27;24.77;;;4.50;99.90;;;;;;5149942;27;20174;-86
2022/01/16 11:25:01;;;;;;;36.00;23.27;;;4.50;99.90;;;;;;5167315;27;20165;-87
2022/01/16 11:27:27;;;;;;;38.30;23.23;;;4.40;99.90;;;;;;5145050;27;20201;-84
2022/01/16 11:29:52;;;;;;;39.87;25.83;;;4.50;99.90;;;;;;5160705;27;20584;-83
2022/01/16 11:32:19;;;;;;;41.23;25.70;;;4.30;99.90;;;;;;5161023;27;20204;-86
2022/01/16 11:34:45;;;;;;;40.83;25.63;;;4.30;99.90;;;;;;5145582;27;20268;-87
2022/01/16 11:37:12;;;;;;;43.57;26.57;;;4.30;99.90;;;;;;5142637;27;20214;-90
2022/01/16 11:39:39;;;;;;;41.47;25.03;;;4.20;99.90;;;;;;5143427;27;20268;-88
2022/01/16 11:42:15;;;;;;;42.13;25.70;;;4.20;99.90;;;;;;5161520;27;20161;-85
2022/01/16 11:44:53;;;;;;;44.77;27.00;;;4.20;99.90;;;;;;5160465;27;20168;-84
2022/01/16 11:47:19;;;;;;;42.63;26.47;;;4.30;99.90;;;;;;5142758;27;20205;-84
2022/01/16 11:49:44;;;;;;;44.27;27.47;;;4.40;99.90;;;;;;5161026;27;20180;-84
2022/01/16 11:52:21;;;;;;;45.00;26.87;;;4.40;99.90;;;;;;5159996;27;20178;-84
2022/01/16 11:54:53;;;;;;;47.30;26.60;;;4.30;99.90;;;;;;5142272;27;20205;-92
2022/01/16 11:57:27;;;;;;;45.47;26.43;;;4.40;99.90;;;;;;5123583;27;20687;-90
2022/01/16 12:00:14;;;;;;;44.20;27.20;;;4.30;99.90;;;;;;5139077;27;20282;-88
2022/01/16 12:02:46;;;;;;;43.73;26.80;;;4.40;99.90;;;;;;5139522;27;20218;-84
2022/01/16 12:05:24;;;;;;;39.40;25.73;;;4.50;99.90;;;;;;5160253;27;20192;-90
2022/01/16 12:07:52;;;;;;;45.73;24.67;;;4.60;99.90;;;;;;5159172;27;20165;-83
2022/01/16 12:10:38;;;;;;;42.07;26.00;;;4.60;99.90;;;;;;5160155;27;20165;-86
2022/01/16 12:13:04;;;;;;;39.63;23.47;;;4.70;99.90;;;;;;5140236;27;20260;-88
2022/01/16 12:15:32;;;;;;;40.13;26.83;;;4.70;99.90;;;;;;5139471;27;20197;-92
2022/01/16 12:17:59;;;;;;;41.93;26.53;;;4.80;99.90;;;;;;5140864;27;20176;-89
2022/01/16 12:20:26;;;;;;;41.93;25.40;;;4.90;99.90;;;;;;5159620;27;20166;-86
2022/01/16 12:23:04;;;;;;;36.83;24.10;;;5.00;99.90;;;;;;5173873;27;20637;-82
2022/01/16 12:25:33;;;;;;;36.97;23.37;;;4.90;99.90;;;;;;5152373;27;20560;-87
2022/01/16 12:28:02;;;;;;;40.80;24.20;;;4.90;99.90;;;;;;5146450;27;20157;-83
2022/01/16 12:30:33;;;;;;;39.40;25.17;;;4.80;99.90;;;;;;5140287;27;20157;-84
2022/01/16 12:33:11;;;;;;;38.07;23.10;;;4.90;99.90;;;;;;5138872;27;20172;-89
2022/01/16 12:35:48;;;;;;;39.07;23.47;;;4.90;99.90;;;;;;5139460;27;20226;-88
2022/01/16 12:38:28;;;;;;;34.73;22.50;;;5.00;99.90;;;;;;5143419;27;20583;-90
2022/01/16 12:41:24;;;;;;;34.03;22.33;;;4.90;99.90;;;;;;5160306;27;20154;-88
2022/01/16 12:44:01;;;;;;;37.50;22.67;;;4.90;99.90;;;;;;5150946;27;20245;-88
2022/01/16 12:47:10;;;;;;;36.30;23.00;;;5.00;99.90;;;;;;5161247;27;20196;-86
2022/01/16 12:49:36;;;;;;;38.07;23.20;;;5.10;99.90;;;;;;5139796;27;20197;-86
2022/01/16 12:52:02;;;;;;;37.87;23.50;;;5.00;99.90;;;;;;5158697;27;20605;-86
2022/01/16 12:54:32;;;;;;;34.67;21.97;;;5.00;99.90;;;;;;5141250;27;20197;-84
2022/01/16 12:57:02;;;;;;;36.37;21.73;;;5.10;99.90;;;;;;5139563;27;20170;-85
2022/01/16 12:59:35;;;;;;;36.33;22.27;;;4.90;99.90;;;;;;5138470;27;20217;-89
2022/01/16 13:02:03;;;;;;;39.13;23.03;;;4.80;99.90;;;;;;5140141;27;20181;-86
2022/01/16 13:04:31;;;;;;;38.47;21.97;;;4.90;99.90;;;;;;5158204;27;20173;-90
2022/01/16 13:07:03;;;;;;;40.80;22.77;;;4.80;99.90;;;;;;5156941;27;20205;-86
2022/01/16 13:09:30;;;;;;;40.63;23.37;;;4.80;99.90;;;;;;5140756;27;20173;-87
2022/01/16 13:11:59;;;;;;;37.13;21.87;;;4.90;99.90;;;;;;5156992;27;20177;-89
2022/01/16 13:14:37;;;;;;;35.10;21.40;;;4.80;99.90;;;;;;5140011;27;20257;-82
2022/01/16 13:17:06;;;;;;;40.73;23.03;;;4.90;99.90;;;;;;5138791;27;20166;-89
2022/01/16 13:19:39;;;;;;;38.90;22.97;;;4.90;99.90;;;;;;5163375;27;20161;-82
2022/01/16 13:22:11;;;;;;;41.00;23.83;;;4.90;99.90;;;;;;5155856;27;20173;-81
2022/01/16 13:24:40;;;;;;;38.40;22.77;;;4.90;99.90;;;;;;5155756;27;20519;-82
2022/01/16 13:27:16;;;;;;;44.23;24.73;;;5.00;99.90;;;;;;5157658;27;20205;-85
2022/01/16 13:30:04;;;;;;;40.10;23.67;;;4.90;99.90;;;;;;5138270;27;20172;-86
2022/01/16 13:33:02;;;;;;;39.03;23.73;;;5.00;99.90;;;;;;5138612;27;20185;-86
2022/01/16 13:35:30;;;;;;;40.43;23.83;;;5.00;99.90;;;;;;5156584;27;20641;-83
2022/01/16 13:38:07;;;;;;;44.00;24.50;;;5.10;99.90;;;;;;5157337;27;20173;-83
2022/01/16 13:40:34;;;;;;;39.43;23.27;;;5.00;99.90;;;;;;5153677;27;20203;-82
2022/01/16 13:43:07;;;;;;;39.83;23.63;;;5.00;99.90;;;;;;5176916;27;20165;-83
2022/01/16 13:45:44;;;;;;;39.03;23.47;;;5.00;99.90;;;;;;5152606;27;20284;-82